Lake Levels Lake Levels   »   United States   »   Texas
LAKES RIVERS MARINAS NEWS HOUSES EVENTS MAPS
1,681 Lakes:
Lake Store

Lake Levels in Texas, United States

Lake Name Current
Level
Full Pool +/-
Full Pool
Reading
Date - Time
Alan Henry (TX) 2,216.62 2,224.00 -7.38 10/26/2020  7:30 AM
Amistad (TX) 1,072.85 1,117.00 -44.15 10/26/2020  8:15 AM
Amon Carter (TX) 919.44 920.00 -0.56 10/26/2020  8:00 AM
Aquilla (TX) 536.59 537.50 -0.91 10/26/2020  7:30 AM
Arlington (TX) 545.44 550.00 -4.56 10/26/2020  12:00 AM
Arrowhead (TX) 925.72 926.00 -0.28 10/26/2020  7:00 AM
Athens (TX) 440.25 440.00 0.25 10/26/2020  3:30 AM
Austin (TX) 491.94 492.80 -0.86 10/26/2020  8:00 AM
Bardwell (TX) 420.70 421.00 -0.30 10/26/2020  7:30 AM
Belton (TX) 593.66 594.00 -0.34 10/26/2020  4:00 AM
Benbrook (TX) 689.54 694.00 -4.46 10/26/2020  8:00 AM
Bob Sandlin (TX) 336.72 337.50 -0.78 10/25/2020  9:57 AM
Bonham (TX) 564.50 565.00 -0.50 10/26/2020  6:00 AM
Brady Creek (TX) 1,738.38 1,743.00 -4.62 10/26/2020  8:45 AM
Bridgeport (TX) 832.82 836.00 -3.18 10/26/2020  8:00 AM
Brownwood (TX) 1,422.46 1,425.00 -2.54 10/26/2020  8:30 AM
Buchanan (TX) 1,014.46 1,020.50 -6.04 10/25/2020  10:05 AM
Caddo (LA TX) 168.90 168.50 0.40 10/26/2020  7:00 AM
Canyon (TX) 904.90 909.00 -4.10 10/26/2020  12:15 AM
Cedar Creek (TX) 321.35 322.00 -0.65 10/26/2020  12:45 AM
Champion Creek (TX) 2,069.98 2,083.00 -13.02 10/25/2020  9:31 AM
Cherokee (TX) 279.55 280.00 -0.45 10/26/2020  12:45 AM
Choke Canyon (TX) 199.15 220.50 -21.35 10/26/2020  7:30 AM
Cisco (TX) 1,517.42 1,520.00 -2.58 10/26/2020  7:30 AM
Coleman (TX) 1,715.00 1,718.00 -3.00 10/26/2020  7:30 AM
Coleto Creek (TX) 93.12 98.28 -5.16 10/26/2020  12:00 AM
Colorado City (TX) 2,054.12 2,070.20 -16.08 10/25/2020  9:31 AM
Conroe (TX) 199.21 201.00 -1.79 10/26/2020  8:30 AM
Corpus Christi (TX) 87.69 94.00 -6.31 10/25/2020  8:06 AM
Cypress Springs (TX) 179.56 378.00 -198.44 10/25/2020  9:57 AM
E. V. Spence (TX) 1,858.68 1,898.00 -39.32 10/26/2020  7:00 AM
Eagle Mountain (TX) 647.70 649.00 -1.30 10/26/2020  7:00 AM
Falcon (TX) 263.51 301.20 -37.69 10/26/2020  8:15 AM
Fork (TX) 400.95 403.00 -2.05 10/26/2020  8:30 AM
Georgetown (TX) 777.04 791.00 -13.96 10/26/2020  8:00 AM
Graham (TX) 1,074.29 1,075.00 -0.71 10/26/2020  8:00 AM
Granbury (TX) 692.58 693.00 -0.42 10/26/2020  8:30 AM
Granger (TX) 502.62 504.00 -1.38 10/26/2020  12:17 AM
Grapevine (TX) 534.49 535.00 -0.51 10/26/2020  8:45 AM
Hords Creek (TX) 1,891.70 1,900.00 -8.30 10/26/2020  7:30 AM
Houston (TX) 42.16 42.40 -0.24 10/26/2020  7:30 AM
Hubbard Creek (TX) 1,181.56 1,183.00 -1.44 10/26/2020  8:15 AM
Hubert M Moss (TX) 714.32 715.00 -0.68 10/26/2020  8:15 AM
Inks (TX) 887.08 886.90 0.18 10/26/2020  7:00 AM
Jacksonville (TX) 421.84 422.00 -0.16 10/26/2020  12:00 AM
JB Thomas (TX) 2,223.44 2,258.00 -34.56 10/26/2020  8:45 AM
Jim Chapman (TX) 436.36 440.00 -3.64 10/25/2020  9:57 AM
Joe Pool (TX) 520.90 522.00 -1.10 10/26/2020  7:00 AM
Kemp (TX) 1,141.59 1,144.00 -2.41 10/26/2020  8:15 AM
Kickapoo (TX) 1,042.42 1,045.00 -2.58 10/26/2020  7:00 AM
Lake O' the Pines (TX) 228.56 228.50 0.06 10/25/2020  9:57 AM
Lavon (TX) 490.40 492.00 -1.60 10/26/2020  5:00 AM
Leon (TX) 1,374.35 10/26/2020  7:30 AM
Lewisville (TX) 521.48 522.00 -0.52 10/26/2020  5:15 AM
Limestone (TX) 362.46 363.00 -0.54 10/26/2020  7:45 AM
Livingston (TX) 130.63 131.00 -0.37 10/26/2020  12:00 AM
Lyndon B. Johnson (TX) 824.69 825.00 -0.31 10/25/2020  10:05 AM
MacKenzie (TX) 3,014.68 3,100.00 -85.32 10/26/2020  8:30 AM
Marble Falls (TX) 736.38 737.00 -0.62 10/25/2020  10:05 AM
Martin Creek (TX) 303.73 306.00 -2.27 10/26/2020  8:30 AM
Medina (TX) 1,036.75 1,062.00 -25.25 10/26/2020  7:00 AM
Meredith (TX) 2,885.69 2,941.00 -55.31 10/26/2020  8:30 AM
Mexia (TX) 447.91 448.30 -0.39 10/26/2020  6:15 AM
Millers Creek (TX) 1,334.26 1,334.00 0.26 10/26/2020  8:00 AM
Mineral Wells (TX) 863.45 863.00 0.45 10/26/2020  1:30 PM
Moss Creek (TX) 2,326.39 2,337.00 -10.61 10/26/2020  7:45 AM
Murvaul (TX) 264.64 265.50 -0.86 10/25/2020  9:57 AM
Nacogdoches (TX) 276.64 279.00 -2.36 10/25/2020  9:57 AM
Natural Dam Salt (TX) 2,447.29 2,457.00 -9.71 10/26/2020  12:00 AM
Navarro Mills (TX) 424.16 424.50 -0.34 10/26/2020  8:00 AM
Nocona (TX) 826.62 827.00 -0.38 10/26/2020  8:00 AM
O. C. Fisher (TX) 1,866.77 1,908.00 -41.23 10/26/2020  8:00 AM
O.H. Ivie (TX) 1,538.57 1,551.50 -12.93 10/26/2020  7:45 AM
Oak Creek (TX) 1,996.56 2,000.00 -3.44 10/26/2020  12:00 AM
Palestine (TX) 344.68 345.00 -0.32 10/26/2020  7:00 AM
Palo Pinto (TX) 866.13 867.00 -0.87 10/26/2020  7:15 AM
Pat Cleburne (TX) 731.71 733.60 -1.89 10/26/2020  8:00 AM
Pat Mayse (TX) 451.24 451.00 0.24 10/25/2020  9:57 AM
Phantom Hill (TX) 1,634.41 1,635.90 -1.49 10/26/2020  7:30 AM
Possum Kingdom (TX) 998.72 1,000.00 -1.28 10/26/2020  8:31 AM
Proctor (TX) 1,161.92 1,162.00 -0.08 10/26/2020  8:30 AM
Ray Hubbard (TX) 434.14 435.50 -1.36 10/26/2020  8:45 AM
Ray Roberts (TX) 631.97 632.50 -0.53 10/26/2020  6:15 AM
Red Bluff (TX) 2,814.01 2,827.13 -13.12 10/26/2020  8:15 AM
Richland Chambers (TX) 314.03 315.00 -0.97 10/26/2020  8:45 AM
Sam Rayburn (TX) 160.63 164.40 -3.77 10/26/2020  4:00 AM
Somerville (TX) 235.92 238.00 -2.08 10/26/2020  7:00 AM
Squaw Creek (TX) 775.36 775.00 0.36 10/26/2020  6:00 AM
Stamford (TX) 1,417.46 1,417.00 0.46 10/26/2020  8:30 AM
Steinhagen Reservoir (TX) 82.40 82.40 -0.00 10/26/2020  8:00 AM
Stillhouse Hollow (TX) 624.55 622.00 2.55 10/26/2020  7:00 AM
Tawakoni (TX) 435.97 437.50 -1.53 10/26/2020  8:15 AM
Texana (TX) 43.42 44.00 -0.58 10/26/2020  12:00 AM
Texoma (TX) 613.59 617.00 -3.41 10/26/2020  1:00 AM
Toledo Bend (TX LA) 168.11 172.00 -3.89 10/26/2020  8:30 AM
Travis (TX) 660.67 681.00 -20.33 10/26/2020  8:00 AM
Twin Buttes (TX) 1,928.64 1,940.00 -11.36 10/26/2020  12:00 AM
Tyler (TX) 375.09 375.50 -0.41 10/25/2020  9:57 AM
Waco (TX) 461.43 462.00 -0.57 10/26/2020  6:15 AM
Waxahachie (TX) 527.42 10/26/2020  12:00 AM
Weatherford (TX) 894.57 896.00 -1.43 10/26/2020  8:45 AM
White River (TX) 2,347.68 10/26/2020  8:15 AM
Whitney (TX) 530.67 533.00 -2.33 10/26/2020  7:15 AM
Worth (TX) 592.61 594.00 -1.39 10/26/2020  8:00 AM
Wright Patman (TX) 224.59 220.60 3.99 10/25/2020  9:57 AM


CURRENT DAILY STREAMFLOW CONDITIONS
High
90th percentile
75th - 89th percentile
25th - 74th percentile
10th - 24th percentile
10th percentile
Low
Not ranked

The colored dots on this map depict streamflow conditions as a percentile, which is computed from the period of record for the current day of the year. Only stations with at least 30 years of record are used. The gray circles indicate other stations that were not ranked in percentiles either because they have fewer than 30 years of record or because they report parameters other than streamflow. Some stations, for example, measure stage only.
U.S. Daily Streamflow Conditions



U.S. Drought Monitor